Odessit — 5IM479 — position and weather

sailwx.info

Track history (hours):
 
Tides and Currents Weather Stations Pressure Air Temp Water Temp Dewpoint Dewpoint Depression Visibility Wind Speed Wind Dir Waves Ship Positions

Odessit

Last reported at 2017-Nov-15 23:52 UTC. Time now 2017-Nov-19 18:20 UTC.
Position N 45°15' E 036°28'.

Length 114 m; draft 3.4 m.

Type: Cargo ship. MMSI: 677037900.

Date/timePositionNaut miles runAvg speedWind from/ knotsBaromVisibWave heightAir tempDewpointWater temp
2017-Nov-15 23:52N 45°15' E 036°28'2 6.7
2017-Nov-15 23:30N 45°18' E 036°29'4 8.1
2017-Nov-15 23:00N 45°20' E 036°34'4 8.7
2017-Nov-15 22:30N 45°21' E 036°39'3 7.0
2017-Nov-15 22:00N 45°25' E 036°41'3 6.5
2017-Nov-15 21:30N 45°28' E 036°40'0 0.6
2017-Nov-15 20:59N 45°28' E 036°40'0 0.0
2017-Nov-15 20:26N 45°28' E 036°40'0 0.0
2017-Nov-15 19:50N 45°28' E 036°40'0 0.0
2017-Nov-15 19:29N 45°28' E 036°40'0 0.0
2017-Nov-15 17:50N 45°28' E 036°40'0 0.0
2017-Nov-15 17:23N 45°28' E 036°40'0 0.0
2017-Nov-15 16:59N 45°28' E 036°40'0 0.0
2017-Nov-15 16:29N 45°28' E 036°40'0 0.0
2017-Nov-15 15:26N 45°28' E 036°40'0 0.0
2017-Nov-15 14:56N 45°28' E 036°40'0 0.0
2017-Nov-15 14:29N 45°28' E 036°40'0 0.0
2017-Nov-15 13:50N 45°28' E 036°40'0 0.0
2017-Nov-15 13:29N 45°28' E 036°40'0 0.0
2017-Nov-15 12:59N 45°28' E 036°40'0 0.0
2017-Nov-15 12:20N 45°28' E 036°40'0 0.0
2017-Nov-15 11:59N 45°28' E 036°40'0 0.0
2017-Nov-15 11:17N 45°28' E 036°40'0 0.0
2017-Nov-15 10:59N 45°28' E 036°40'0 0.0
2017-Nov-15 10:20N 45°28' E 036°40'0 0.0
2017-Nov-15 09:44N 45°28' E 036°40'0 0.0
2017-Nov-15 09:14N 45°28' E 036°40'0 0.0
2017-Nov-15 08:59N 45°28' E 036°40'0 0.0
2017-Nov-15 08:26N 45°28' E 036°40'0 0.0
2017-Nov-15 07:50N 45°28' E 036°40'0 0.0
2017-Nov-15 07:17N 45°28' E 036°40'0 0.0
2017-Nov-15 06:47N 45°28' E 036°40'0 0.0
2017-Nov-15 06:29N 45°28' E 036°40'0 0.0
2017-Nov-15 05:56N 45°28' E 036°40'0 0.0
2017-Nov-15 04:56N 45°28' E 036°40'0 0.0
2017-Nov-15 04:29N 45°28' E 036°40'0 0.0
2017-Nov-15 03:59N 45°28' E 036°40'0 0.0
2017-Nov-15 03:29N 45°28' E 036°40'0 0.0
2017-Nov-15 02:59N 45°28' E 036°40'0 0.0
2017-Nov-15 02:29N 45°28' E 036°40'0 0.0
2017-Nov-15 01:59N 45°28' E 036°40'0 0.5
2017-Nov-15 01:30N 45°28' E 036°40'  
2017-Nov-09 12:01N 45°32' E 036°46'0 8.2
2017-Nov-09 12:00N 45°32' E 036°46'4 8.1
2017-Nov-09 11:30N 45°28' E 036°43'4 8.0
2017-Nov-09 11:00N 45°25' E 036°41'4 7.5
2017-Nov-09 10:30N 45°21' E 036°40'4 7.1
2017-Nov-09 10:00N 45°20' E 036°35'4 7.4
2017-Nov-09 09:30N 45°18' E 036°30'2 3.1
2017-Nov-09 09:00N 45°17' E 036°29'2 4.0
2017-Nov-09 08:30N 45°15' E 036°29'2 3.5
2017-Nov-09 08:00N 45°14' E 036°30'1 1.4
2017-Nov-09 07:29N 45°13' E 036°31'0 0.0
2017-Nov-09 06:59N 45°13' E 036°31'0 0.0
2017-Nov-09 06:29N 45°13' E 036°31'0 0.0
2017-Nov-09 05:59N 45°13' E 036°31'0 0.0
2017-Nov-09 05:29N 45°13' E 036°31'0 0.0
2017-Nov-09 04:59N 45°13' E 036°31'0 0.0
2017-Nov-09 03:31N 45°13' E 036°31'0 0.9
2017-Nov-09 03:27N 45°13' E 036°31'1 2.4
2017-Nov-09 02:58N 45°12' E 036°30'3 7.0
2017-Nov-09 02:30N 45°09' E 036°29'310 7.0
2017-Nov-07 06:29N 44°05' E 029°24'3 7.2
2017-Nov-07 06:00N 44°05' E 029°19'4 7.3
2017-Nov-07 05:31N 44°05' E 029°14'4 7.5
2017-Nov-07 05:00N 44°05' E 029°09'4 7.7
2017-Nov-07 04:30N 44°05' E 029°04'4 7.6
2017-Nov-07 04:01N 44°05' E 028°59'4 7.7
2017-Nov-07 03:30N 44°05' E 028°53'4 7.7
2017-Nov-07 03:01N 44°05' E 028°48'4 7.7
2017-Nov-07 02:31N 44°05' E 028°42'3 6.2
2017-Nov-07 02:00N 44°08' E 028°41'2 3.0
2017-Nov-07 01:29N 44°08' E 028°39'0 0.0
2017-Nov-07 00:56N 44°08' E 028°39'0 0.0
2017-Nov-07 00:29N 44°09' E 028°39'0 0.0
2017-Nov-06 23:59N 44°08' E 028°39'0 0.0
2017-Nov-06 23:29N 44°08' E 028°39'0 0.0
2017-Nov-06 22:59N 44°08' E 028°39'0 0.0
2017-Nov-06 22:29N 44°08' E 028°39'0 0.0
2017-Nov-06 21:59N 44°09' E 028°39'0 0.0
2017-Nov-06 21:29N 44°09' E 028°39'0 0.0
2017-Nov-06 20:59N 44°08' E 028°39'0 0.0
2017-Nov-06 20:29N 44°08' E 028°39'5 0.3
2017-Nov-06 02:28N 44°07' E 028°46'0 0.0
2017-Nov-06 01:58N 44°07' E 028°46'0 0.0
2017-Nov-06 01:28N 44°07' E 028°46'0 0.0
2017-Nov-06 00:58N 44°07' E 028°46'0 0.0
2017-Nov-06 00:28N 44°07' E 028°46'0 0.0
2017-Nov-05 23:58N 44°07' E 028°46'  
Track history (hours):
 
Tides and Currents Weather Stations Pressure Air Temp Water Temp Dewpoint Dewpoint Depression Visibility Wind Speed Wind Dir Waves Ship Positions

Odessit

Last reported at 2017-Nov-15 23:52 UTC. Time now 2017-Nov-19 18:20 UTC.
Position N 45°15' E 036°28'.

Length 114 m; draft 3.4 m.

Type: Cargo ship. MMSI: 677037900.

Date/timePositionNaut miles runAvg speedWind from/ knotsBaromVisibWave heightAir tempDewpointWater temp
2017-Nov-15 23:52N 45°15' E 036°28'2 6.7
2017-Nov-15 23:30N 45°18' E 036°29'4 8.1
2017-Nov-15 23:00N 45°20' E 036°34'4 8.7
2017-Nov-15 22:30N 45°21' E 036°39'3 7.0
2017-Nov-15 22:00N 45°25' E 036°41'3 6.5
2017-Nov-15 21:30N 45°28' E 036°40'0 0.6
2017-Nov-15 20:59N 45°28' E 036°40'0 0.0
2017-Nov-15 20:26N 45°28' E 036°40'0 0.0
2017-Nov-15 19:50N 45°28' E 036°40'0 0.0
2017-Nov-15 19:29N 45°28' E 036°40'0 0.0
2017-Nov-15 17:50N 45°28' E 036°40'0 0.0
2017-Nov-15 17:23N 45°28' E 036°40'0 0.0
2017-Nov-15 16:59N 45°28' E 036°40'0 0.0
2017-Nov-15 16:29N 45°28' E 036°40'0 0.0
2017-Nov-15 15:26N 45°28' E 036°40'0 0.0
2017-Nov-15 14:56N 45°28' E 036°40'0 0.0
2017-Nov-15 14:29N 45°28' E 036°40'0 0.0
2017-Nov-15 13:50N 45°28' E 036°40'0 0.0
2017-Nov-15 13:29N 45°28' E 036°40'0 0.0
2017-Nov-15 12:59N 45°28' E 036°40'0 0.0
2017-Nov-15 12:20N 45°28' E 036°40'0 0.0
2017-Nov-15 11:59N 45°28' E 036°40'0 0.0
2017-Nov-15 11:17N 45°28' E 036°40'0 0.0
2017-Nov-15 10:59N 45°28' E 036°40'0 0.0
2017-Nov-15 10:20N 45°28' E 036°40'0 0.0
2017-Nov-15 09:44N 45°28' E 036°40'0 0.0
2017-Nov-15 09:14N 45°28' E 036°40'0 0.0
2017-Nov-15 08:59N 45°28' E 036°40'0 0.0
2017-Nov-15 08:26N 45°28' E 036°40'0 0.0
2017-Nov-15 07:50N 45°28' E 036°40'0 0.0
2017-Nov-15 07:17N 45°28' E 036°40'0 0.0
2017-Nov-15 06:47N 45°28' E 036°40'0 0.0
2017-Nov-15 06:29N 45°28' E 036°40'0 0.0
2017-Nov-15 05:56N 45°28' E 036°40'0 0.0
2017-Nov-15 04:56N 45°28' E 036°40'0 0.0
2017-Nov-15 04:29N 45°28' E 036°40'0 0.0
2017-Nov-15 03:59N 45°28' E 036°40'0 0.0
2017-Nov-15 03:29N 45°28' E 036°40'0 0.0
2017-Nov-15 02:59N 45°28' E 036°40'0 0.0
2017-Nov-15 02:29N 45°28' E 036°40'0 0.0
2017-Nov-15 01:59N 45°28' E 036°40'0 0.5
2017-Nov-15 01:30N 45°28' E 036°40'  
2017-Nov-09 12:01N 45°32' E 036°46'0 8.2
2017-Nov-09 12:00N 45°32' E 036°46'4 8.1
2017-Nov-09 11:30N 45°28' E 036°43'4 8.0
2017-Nov-09 11:00N 45°25' E 036°41'4 7.5
2017-Nov-09 10:30N 45°21' E 036°40'4 7.1
2017-Nov-09 10:00N 45°20' E 036°35'4 7.4
2017-Nov-09 09:30N 45°18' E 036°30'2 3.1
2017-Nov-09 09:00N 45°17' E 036°29'2 4.0
2017-Nov-09 08:30N 45°15' E 036°29'2 3.5
2017-Nov-09 08:00N 45°14' E 036°30'1 1.4
2017-Nov-09 07:29N 45°13' E 036°31'0 0.0
2017-Nov-09 06:59N 45°13' E 036°31'0 0.0
2017-Nov-09 06:29N 45°13' E 036°31'0 0.0
2017-Nov-09 05:59N 45°13' E 036°31'0 0.0
2017-Nov-09 05:29N 45°13' E 036°31'0 0.0
2017-Nov-09 04:59N 45°13' E 036°31'0 0.0
2017-Nov-09 03:31N 45°13' E 036°31'0 0.9
2017-Nov-09 03:27N 45°13' E 036°31'1 2.4
2017-Nov-09 02:58N 45°12' E 036°30'3 7.0
2017-Nov-09 02:30N 45°09' E 036°29'310 7.0
2017-Nov-07 06:29N 44°05' E 029°24'3 7.2
2017-Nov-07 06:00N 44°05' E 029°19'4 7.3
2017-Nov-07 05:31N 44°05' E 029°14'4 7.5
2017-Nov-07 05:00N 44°05' E 029°09'4 7.7
2017-Nov-07 04:30N 44°05' E 029°04'4 7.6
2017-Nov-07 04:01N 44°05' E 028°59'4 7.7
2017-Nov-07 03:30N 44°05' E 028°53'4 7.7
2017-Nov-07 03:01N 44°05' E 028°48'4 7.7
2017-Nov-07 02:31N 44°05' E 028°42'3 6.2
2017-Nov-07 02:00N 44°08' E 028°41'2 3.0
2017-Nov-07 01:29N 44°08' E 028°39'0 0.0
2017-Nov-07 00:56N 44°08' E 028°39'0 0.0
2017-Nov-07 00:29N 44°09' E 028°39'0 0.0
2017-Nov-06 23:59N 44°08' E 028°39'0 0.0
2017-Nov-06 23:29N 44°08' E 028°39'0 0.0
2017-Nov-06 22:59N 44°08' E 028°39'0 0.0
2017-Nov-06 22:29N 44°08' E 028°39'0 0.0
2017-Nov-06 21:59N 44°09' E 028°39'0 0.0
2017-Nov-06 21:29N 44°09' E 028°39'0 0.0
2017-Nov-06 20:59N 44°08' E 028°39'0 0.0
2017-Nov-06 20:29N 44°08' E 028°39'5 0.3
2017-Nov-06 02:28N 44°07' E 028°46'0 0.0
2017-Nov-06 01:58N 44°07' E 028°46'0 0.0
2017-Nov-06 01:28N 44°07' E 028°46'0 0.0
2017-Nov-06 00:58N 44°07' E 028°46'0 0.0
2017-Nov-06 00:28N 44°07' E 028°46'0 0.0
2017-Nov-05 23:58N 44°07' E 028°46'  

Dump ship's entire track history